createdAt,value
2023-05-01T00:01:00.669Z,11.25
2023-05-01T00:06:19.273Z,11.12
2023-05-01T00:11:37.526Z,11.44
2023-05-01T00:16:56.282Z,11.38
2023-05-01T00:22:14.826Z,11.5
2023-05-01T00:27:33.553Z,11.56
2023-05-01T00:32:52.386Z,11.38
2023-05-01T00:38:10.851Z,11.63
2023-05-01T00:43:29.138Z,11.63
2023-05-01T00:48:47.472Z,11.5
2023-05-01T00:54:05.830Z,11.63
2023-05-01T00:59:24.379Z,11.56
2023-05-01T01:04:42.638Z,11.56
2023-05-01T01:10:01.004Z,11.5
2023-05-01T01:15:19.346Z,11.44
2023-05-01T01:20:37.505Z,11.31
2023-05-01T01:25:56.034Z,11.25
2023-05-01T01:31:14.465Z,11.06
2023-05-01T01:36:32.563Z,11.19
2023-05-01T01:41:50.824Z,11.19
2023-05-01T01:47:09.545Z,11
2023-05-01T01:52:28.389Z,11.12
2023-05-01T01:57:46.945Z,11
2023-05-01T02:03:05.586Z,11.19
2023-05-01T02:08:23.943Z,11
2023-05-01T02:13:42.569Z,11.19
2023-05-01T02:19:01.332Z,11.19
2023-05-01T02:24:20.008Z,10.94
2023-05-01T02:29:38.736Z,11.12
2023-05-01T02:34:57.563Z,11.75
2023-05-01T02:40:16.004Z,11.38
2023-05-01T02:45:34.428Z,11
2023-05-01T02:50:52.936Z,10.81
2023-05-01T02:56:11.544Z,10.75
2023-05-01T03:01:29.835Z,10.63
2023-05-01T03:06:48.458Z,10.75
2023-05-01T03:12:06.794Z,10.63
2023-05-01T03:17:25.432Z,10.44
2023-05-01T03:22:43.678Z,10.38
2023-05-01T03:28:02.349Z,10.31
2023-05-01T03:33:20.953Z,10.25
2023-05-01T03:38:39.625Z,10.13
2023-05-01T03:43:57.859Z,10.06
2023-05-01T03:49:16.083Z,10.06
2023-05-01T03:54:34.281Z,9.94
2023-05-01T03:59:52.720Z,9.88
2023-05-01T04:05:11.011Z,9.75
2023-05-01T04:10:29.235Z,9.63
2023-05-01T04:15:47.599Z,9.69
2023-05-01T04:21:06.282Z,10
2023-05-01T04:26:24.722Z,10.06
2023-05-01T04:31:43.178Z,10.38
2023-05-01T04:37:01.641Z,10.38
2023-05-01T04:42:20.114Z,10.25
2023-05-01T04:47:38.990Z,10.31
2023-05-01T04:52:57.270Z,10.63
2023-05-01T04:58:15.638Z,10.38
2023-05-01T05:03:33.771Z,10.38
2023-05-01T05:08:52.077Z,10.5
2023-05-01T05:14:10.788Z,11.06
2023-05-01T05:19:29.043Z,10.94
2023-05-01T05:24:47.581Z,11.31
2023-05-01T05:30:05.894Z,11.25
2023-05-01T05:35:24.730Z,11.31
2023-05-01T05:40:43.216Z,11.63
2023-05-01T05:46:02.121Z,12
2023-05-01T05:51:23.403Z,12.31
2023-05-01T05:56:42.238Z,12.44
2023-05-01T06:02:01.268Z,12.75
2023-05-01T06:07:20.097Z,13.31
2023-05-01T06:12:39.624Z,14
2023-05-01T06:17:58.062Z,14.38
2023-05-01T06:23:16.276Z,14.44
2023-05-01T06:28:34.884Z,14.44
2023-05-01T06:33:53.628Z,14.5
2023-05-01T06:39:12.177Z,14.69
2023-05-01T06:44:32.693Z,14.69
2023-05-01T06:49:49.236Z,14.81
2023-05-01T06:55:07.892Z,14.94
2023-05-01T07:00:26.556Z,14.81
2023-05-01T07:05:45.059Z,15
2023-05-01T07:11:03.757Z,14.87
2023-05-01T07:16:22.190Z,15.19
2023-05-01T07:21:40.869Z,15.44
2023-05-01T07:26:59.092Z,15.19
2023-05-01T07:32:17.961Z,14.87
2023-05-01T07:37:36.481Z,14.94
2023-05-01T07:42:54.843Z,14.63
2023-05-01T07:48:12.890Z,14.75
2023-05-01T07:53:30.980Z,14.5
2023-05-01T07:58:49.807Z,14.56
2023-05-01T08:04:08.284Z,14.75
2023-05-01T08:09:26.727Z,14.94
2023-05-01T08:14:45.085Z,14.75
2023-05-01T08:20:03.387Z,15
2023-05-01T08:25:21.713Z,14.75
2023-05-01T08:30:40.447Z,15
2023-05-01T08:35:58.777Z,15.06
2023-05-01T08:41:16.959Z,14.63
2023-05-01T08:46:35.246Z,14.81
2023-05-01T08:51:53.474Z,15.13
2023-05-01T08:57:11.960Z,15.31
2023-05-01T09:02:30.861Z,15.69
2023-05-01T09:07:49.699Z,16.12
2023-05-01T09:13:08.500Z,16.06
2023-05-01T09:18:27.156Z,16.31
2023-05-01T09:23:46.014Z,16.06
2023-05-01T09:29:04.589Z,16.56
2023-05-01T09:34:23.430Z,17.25
2023-05-01T09:39:42.035Z,17.31
2023-05-01T09:45:01.100Z,17.62
2023-05-01T09:50:20.642Z,19.12
2023-05-01T09:55:38.878Z,17.69
2023-05-01T10:00:58.963Z,20.56
2023-05-01T10:06:17.494Z,20.88
2023-05-01T10:11:35.593Z,20.5
2023-05-01T10:16:53.396Z,17.94
2023-05-01T10:22:14.765Z,19.5
2023-05-01T10:27:32.847Z,20.06
2023-05-01T10:32:51.763Z,21.25
2023-05-01T10:38:10.840Z,21.12
2023-05-01T10:43:29.583Z,19.44
2023-05-01T10:48:47.948Z,20.62
2023-05-01T10:54:06.610Z,20.56
2023-05-01T10:59:25.034Z,19.56
2023-05-01T11:04:44.838Z,21.5
2023-05-01T11:10:05.714Z,19.56
2023-05-01T11:15:23.088Z,20.44
2023-05-01T11:20:41.052Z,21.25
2023-05-01T11:25:59.717Z,21.31
2023-05-01T11:31:18.621Z,21.06
2023-05-01T11:36:39.322Z,21.5
2023-05-01T11:41:55.450Z,22.19
2023-05-01T11:47:13.650Z,22.37
2023-05-01T11:52:31.651Z,21.19
2023-05-01T11:57:50.254Z,22.13
2023-05-01T12:03:09.071Z,21.31
2023-05-01T12:08:26.702Z,20.56
2023-05-01T12:13:44.780Z,20.19
2023-05-01T12:19:02.918Z,20.37
2023-05-01T12:24:21.195Z,20.19
2023-05-01T12:29:40.397Z,21.56
2023-05-01T12:35:00.249Z,21.25
2023-05-01T12:40:18.097Z,21.81
2023-05-01T12:45:36.055Z,21.19
2023-05-01T12:50:54.008Z,21.44
2023-05-01T12:56:12.872Z,22
2023-05-01T13:01:30.888Z,20.25
2023-05-01T13:06:49.339Z,21.25
2023-05-01T13:12:08.024Z,20.94
2023-05-01T13:17:26.126Z,19.81
2023-05-01T13:22:44.244Z,20.12
2023-05-01T13:28:02.729Z,20.37
2023-05-01T13:33:20.863Z,20.81
2023-05-01T13:38:38.540Z,20.19
2023-05-01T13:43:57.319Z,19.44
2023-05-01T13:49:15.613Z,19.75
2023-05-01T13:54:34.052Z,20.69
2023-05-01T13:59:52.140Z,20.06
2023-05-01T14:05:10.367Z,20.56
2023-05-01T14:10:28.962Z,21.37
2023-05-01T14:15:47.404Z,20.56
2023-05-01T14:21:05.892Z,20.19
2023-05-01T14:26:24.999Z,22.31
2023-05-01T14:31:43.503Z,21.94
2023-05-01T14:37:02.349Z,22
2023-05-01T14:42:20.707Z,20.75
2023-05-01T14:47:38.566Z,20.56
2023-05-01T14:52:57.212Z,21.44
2023-05-01T14:58:15.547Z,20.94
2023-05-01T15:03:33.437Z,21.44
2023-05-01T15:08:52.637Z,21.75
2023-05-01T15:19:28.084Z,19.12
2023-05-01T15:24:46.372Z,18.94
2023-05-01T15:30:04.622Z,19.69
2023-05-01T15:35:22.927Z,19.31
2023-05-01T15:40:41.769Z,19
2023-05-01T15:45:59.874Z,18.44
2023-05-01T15:51:17.901Z,18.31
2023-05-01T15:56:36.054Z,18.75
2023-05-01T16:01:54.814Z,19.69
2023-05-01T16:07:13.573Z,20.75
2023-05-01T16:12:32.456Z,20.37
2023-05-01T16:17:50.296Z,19.31
2023-05-01T16:23:08.067Z,18.87
2023-05-01T16:28:26.448Z,18.62
2023-05-01T16:33:44.433Z,18.19
2023-05-01T16:39:02.887Z,18.12
2023-05-01T16:44:21.464Z,17.69
2023-05-01T16:49:39.403Z,17.31
2023-05-01T16:54:58.111Z,17.12
2023-05-01T17:00:16.399Z,17
2023-05-01T17:05:35.085Z,17
2023-05-01T17:10:53.748Z,16.94
2023-05-01T17:16:12.213Z,16.81
2023-05-01T17:21:30.311Z,16.69
2023-05-01T17:26:48.944Z,16.44
2023-05-01T17:32:07.686Z,16.37
2023-05-01T17:37:26.261Z,16.44
2023-05-01T17:47:51.394Z,16.06
2023-05-01T17:53:09.899Z,15.75
2023-05-01T17:58:27.947Z,15.44
2023-05-01T18:03:46.512Z,15.25
2023-05-01T18:09:04.468Z,15.25
2023-05-01T18:14:22.719Z,15.31
2023-05-01T18:19:40.824Z,15.13
2023-05-01T18:24:59.478Z,15.06
2023-05-01T18:30:17.844Z,14.63
2023-05-01T18:35:35.937Z,14.31
2023-05-01T18:40:54.462Z,13.88
2023-05-01T18:51:17.259Z,13.44
2023-05-01T18:56:35.935Z,13.31
2023-05-01T19:01:54.707Z,13.06
2023-05-01T19:07:13.004Z,13
2023-05-01T19:12:31.591Z,12.94
2023-05-01T19:17:50.022Z,12.81
2023-05-01T19:23:08.653Z,12.81
2023-05-01T19:28:27.166Z,12.69
2023-05-01T19:33:45.470Z,12.69
2023-05-01T19:39:03.732Z,12.63
2023-05-01T19:44:22.438Z,12.56
2023-05-01T19:49:40.687Z,12.5
2023-05-01T20:00:07.946Z,12.06
2023-05-01T20:05:24.440Z,12
2023-05-01T20:10:42.695Z,11.94
2023-05-01T20:16:01.161Z,12.13
2023-05-01T20:21:19.495Z,11.94
2023-05-01T20:26:38.202Z,11.69
2023-05-01T20:31:56.904Z,11.63
2023-05-01T20:42:18.796Z,11.38
2023-05-01T20:47:38.317Z,11.25
2023-05-01T20:52:56.896Z,11.12
2023-05-01T20:58:15.812Z,11.06
2023-05-01T21:03:34.589Z,11.06
2023-05-01T21:08:52.820Z,11.12
2023-05-01T21:14:11.480Z,11.19
2023-05-01T21:19:30.217Z,11.25
2023-05-01T21:24:48.540Z,11.38
2023-05-01T21:30:07.200Z,11.44
2023-05-01T21:35:25.540Z,11.5
2023-05-01T21:40:43.576Z,11.5
2023-05-01T21:46:03.509Z,11.31
2023-05-01T21:51:22.395Z,11.38
2023-05-01T21:56:40.969Z,11.5
2023-05-01T22:01:59.745Z,11.63
2023-05-01T22:07:18.577Z,11.75
2023-05-01T22:12:37.350Z,11.88
2023-05-01T22:17:56.197Z,11.94
2023-05-01T22:23:15.056Z,11.94
2023-05-01T22:28:33.770Z,12
2023-05-01T22:33:52.698Z,12.06
2023-05-01T22:39:11.051Z,12.19
2023-05-01T22:44:29.301Z,12.19
2023-05-01T22:54:54.778Z,12.19
2023-05-01T23:00:13.337Z,12.19
2023-05-01T23:05:31.581Z,12.19
2023-05-01T23:10:50.466Z,12.25
2023-05-01T23:16:08.738Z,12.37
2023-05-01T23:21:27.140Z,12.37
2023-05-01T23:26:45.626Z,12.37
2023-05-01T23:32:03.937Z,12.31
2023-05-01T23:37:22.555Z,12.25
2023-05-01T23:42:42.478Z,12.19
2023-05-01T23:48:00.827Z,12.25
2023-05-01T23:53:19.517Z,12.25
2023-05-01T23:58:37.857Z,12.19
